Main page
METAR-TAF:

METAR-TAF

Airports :

Leeming, England

RAF Leeming

latitude: 54-18N, longitude: 001-32W, elevation: 40 m

Current weather observation

The report was made 35 minutes ago, at 22:50 UTC
Wind 4 kt from the South
Temperature 14°C
Humidity 72%
Pressure 1006 hPa
Visibility 10 km or more

METAR: EGXE 172250Z AUTO 17004KT 9999 NCD 14/09 Q1006

Time: 00:25 (23:25 UTC)

Forecast

The report was made 10 hours and 3 minutes ago, at 13:22 UTC
Forecast valid from 17 at 15 UTC to 17 at 18 UTC
Wind 12 kt from the West/Southwest
Visibility 10 km or more
Few clouds at a height of 4000 ft

TAF: EGXE 171322Z 1715/1718 24012KT 9999 FEW040

Weather observations and forecasts of more than 4000 airports (METAR and TAF reports).

The available stations are represented by yellow and red dots on the map.

Hover mouse over dot to see the name of the station.

Then click to see weather observations and forecasts.

To change the map : click on the green buttons with a black cross to zoom in, on the green button with a dash to zoom out, or on the green arrows for adjacent maps.


METAR-TAF: